Air Resources Laboratory banner image
Air Resources Laboratory web site National Oceanic and Atmospheric Administration (NOAA)

me metar


K40B 202116Z AUTO VRB03KT M07/M08 A2987 RMK AO1 SLP146 T10681077 57010 P0001
 60003=
K8B0 202055Z AUTO 00000KT 1 1/4SM -SN BKN010 OVC015 M03/M05 A2979 RMK AO2 P0001=
KAUG 202053Z AUTO 01008KT 1SM -SN BR BKN007 BKN013 OVC026 M02/M03 A2985 RMK AO2
 SLP113 P0001 60004 T10171028 56004=
KBGR 202053Z 01008KT 1/2SM R15/4500VP6000FT SN FZFG VV011 M02/M03 A2986 RMK AO2
 TWR VIS 3/4 SLP114 P0000 60000 T10221033 58016 $=
KBHB 202056Z AUTO 02011KT 1/2SM SN FZFG OVC004 M01/M02 A2983 RMK AO2 SLP106
 P0002 60003 T10111017 56022 FZRANO RVRNO=
KCAR 202054Z AUTO 01006KT 2SM -SN OVC036 M04/M07 A2991 RMK AO2 SNE32B51 SLP141
 P0000 60000 T10441072 57010=
KFVE 202053Z AUTO 35005KT 4SM -SN OVC021 M05/M09 A2990 RMK AO2 SNB18 SLP138
 P0000 60000 T10501089 56011=
KGNR 202056Z AUTO 05003KT M03/M05 A2979 RMK AO1 SLP109 P0003 60005 T10331050
 55010=
KHUL 202053Z AUTO 36007KT 1SM -SN BR OVC034 M04/M06 A2989 RMK AO2 SLP129 P0000
 60000 T10441056 58015=
KIWI 202053Z AUTO VRB04KT 1 1/4SM -SN BR FEW006 BKN009 OVC021 M01/M01 A2985 RMK
 AO2 SLP109 P0003 60008 T10061011 56015=
KIZG 202054Z AUTO 00000KT 3/4SM -SN BR SCT007 OVC016 M01/M02 A2985 RMK AO2
 SLP116 P0002 60005 T10111017 55006=
KLEW 202056Z AUTO 36007KT 1 3/4SM -SN BR BKN007 BKN011 OVC023 M01/M02 A2985 RMK
 AO2 VIS 1V3 CIG 004V009 SLP124 P0001 60001 T10111017 56009 FZRANO=
KMLT 202053Z AUTO VRB05KT 1SM -SN OVC030 M03/M06 A2990 RMK AO2 SLP136 P0000
 60000 T10331061 56015=
KPQI 202056Z AUTO 36004KT 4SM -SN BR BKN027 OVC033 M05/M07 A2992 RMK AO2 SLP179
 P0000 60000 T10501067 56014 FZRANO=
KPWM 202051Z 02007KT 350V070 1 1/4SM -SN BR SCT007 OVC021 00/M01 A2984 RMK AO2
 SLP107 P0001 60006 T00001006 56006=
KRKD 202056Z AUTO 01008KT 330V050 3/4SM -SN BR OVC004 M01/M01 A2982 RMK AO2
 SLP100 P0006 60014 T10061011 56020 FZRANO=
KSFM 202056Z AUTO 35007KT 3SM UP BR BKN008 OVC027 M01/M01 A2984 RMK AO2
 UPB16E34B52SNE16B18E32B34E52 CIG 005V011 SLP111 6//// T10061011 55007 FZRANO
 PNO $=
KWVL 202056Z AUTO 1SM -SN BR SCT008 BKN017 M02/M03 A2983 RMK AO2 SLP133 P0000
 60000 T10221033 58007 FZRANO $=